Le Grand, California
Current Conditions -  °F | °C
As of 6:32 AM on Monday 26 Jan 2015 (Local Time) from KMCE Reporting Station
Haze Haze  
Wind Chill: 35°   Ceiling: Unl
Heat Index: 35°   Visibility: 1.5mi
Dew Point: 34°   Wind: 3mph
Humidity: 96%   Direction: 330°NNW
Pressure: 30.04"   Gusts: NA
Location:  37.23°N, 120.25°W
Report Text: KMCE 261432Z AUTO 33003KT 1 1/2SM BR FEW001 02/01 A3004 RMK AO2 T00170011 $
Loading
Personal Weather Stations






























Interactive Weather Map New forecast layout! Learn more

10-Day Weather Forecast

Advertisements
Track Severe Weather on mobile